עמוד ראשי
METAR-TAF:

METAR-TAF

שדות תעופה :

Talara, פרו

קו רוחב: 04-34S, קו אורך: 081-15W, גובה: 85מטר

תצפית מזג אוויר נוכחית

הדו"ח נערך לפני 1 שעות ו 0דקות, בשעה 01:00 UTC
טמפרטורת 20 צלסיוס
לחות 88%
לחץ 1014 hPa
ראות 10 קילומטר או יותר
ללא עננים שבסיסם נמוך מ 5000 רגל או קומולונימבוס

METAR: SPYL 130100Z /////KT CAVOK 20/18 Q1014 RMK PP000

זמן: 21:00 (02:00 UTC)

תחזית

הדו"ח נערך לפני 3 שעות ו 0דקות, בשעה 23:00 UTC
תחזית בתוקף מ 13 ב 00 UTC עד 13 ב 24 UTC
רוח 12קשר מכיוון דרום
ראות 10 קילומטר או יותר
עננים פזורים בגובה 4000רגל
יעשה מ
13 ב 05 UTC עד 13 ב 07 UTC
רוח 18קשר מכיוון דרום-מזרח

TAF: SPYL 122300Z 1300/1324 19012KT 9999 SCT040 TX27/1319Z TN15/1311Z BECMG 1305/1307 13018KT

תצפיות ותחזיות מזג אוויר לגבי יותר מ- 4,000 שדות תעופה ברחבי העולם. דוחות METAR ו- TAF.

התחנות הזמינות מסומנות בנקודות צהובות ואדומות על גבי המפה.

העבר את העכבר לנקודה הצבעונית על מנת לראות את שם התחנה.

לאחר מכן, לחץ כדי לראות את תוכן ואת תחזיות מזג האוויר.

כדי לשנות את המפה: לחץ על הכפתורים הירוקים עם הפלוס השחור כדי להתקרב; על הכפתור הירוק עם המקף כדי להתרחק; או בחיצים הירוקים למפות סמוכות.


METAR-TAF: